sensor_id;sensor_type;location;lat;lon;timestamp;temperature;humidity
3842;DHT22;1936;47.074;15.336;2023-03-14T00:00:08;7.00;72.20
3842;DHT22;1936;47.074;15.336;2023-03-14T00:02:12;7.00;72.50
3842;DHT22;1936;47.074;15.336;2023-03-14T00:04:16;7.00;71.50
3842;DHT22;1936;47.074;15.336;2023-03-14T00:06:21;7.00;72.10
3842;DHT22;1936;47.074;15.336;2023-03-14T00:08:25;7.00;71.10
3842;DHT22;1936;47.074;15.336;2023-03-14T00:10:29;7.00;71.50
3842;DHT22;1936;47.074;15.336;2023-03-14T00:12:33;7.10;71.10
3842;DHT22;1936;47.074;15.336;2023-03-14T00:14:36;7.10;71.60
3842;DHT22;1936;47.074;15.336;2023-03-14T00:16:40;7.10;71.70
3842;DHT22;1936;47.074;15.336;2023-03-14T00:18:44;7.00;70.80
3842;DHT22;1936;47.074;15.336;2023-03-14T00:20:48;7.00;70.60
3842;DHT22;1936;47.074;15.336;2023-03-14T00:22:53;7.00;70.60
3842;DHT22;1936;47.074;15.336;2023-03-14T00:24:56;7.00;70.50
3842;DHT22;1936;47.074;15.336;2023-03-14T00:27:00;6.90;70.80
3842;DHT22;1936;47.074;15.336;2023-03-14T00:29:04;6.70;72.00
3842;DHT22;1936;47.074;15.336;2023-03-14T00:31:09;6.50;72.20
3842;DHT22;1936;47.074;15.336;2023-03-14T00:33:13;6.50;71.70
3842;DHT22;1936;47.074;15.336;2023-03-14T00:35:16;6.30;74.00
3842;DHT22;1936;47.074;15.336;2023-03-14T00:37:20;6.20;75.30
3842;DHT22;1936;47.074;15.336;2023-03-14T00:39:25;6.30;74.10
3842;DHT22;1936;47.074;15.336;2023-03-14T00:41:29;6.10;74.10
3842;DHT22;1936;47.074;15.336;2023-03-14T00:43:32;6.10;75.90
3842;DHT22;1936;47.074;15.336;2023-03-14T00:45:36;6.20;76.00
3842;DHT22;1936;47.074;15.336;2023-03-14T00:47:39;6.30;75.90
3842;DHT22;1936;47.074;15.336;2023-03-14T00:49:47;6.60;76.10
3842;DHT22;1936;47.074;15.336;2023-03-14T00:51:51;6.80;74.70
3842;DHT22;1936;47.074;15.336;2023-03-14T00:53:55;7.00;74.10
3842;DHT22;1936;47.074;15.336;2023-03-14T00:56:02;7.00;73.20
3842;DHT22;1936;47.074;15.336;2023-03-14T00:58:06;7.10;73.60
3842;DHT22;1936;47.074;15.336;2023-03-14T01:00:10;7.20;73.60
3842;DHT22;1936;47.074;15.336;2023-03-14T01:02:15;7.20;72.90
3842;DHT22;1936;47.074;15.336;2023-03-14T01:04:18;7.20;72.60
3842;DHT22;1936;47.074;15.336;2023-03-14T01:06:24;7.20;72.40
3842;DHT22;1936;47.074;15.336;2023-03-14T01:08:27;7.30;72.40
3842;DHT22;1936;47.074;15.336;2023-03-14T01:10:31;7.30;72.40
3842;DHT22;1936;47.074;15.336;2023-03-14T01:12:37;7.20;73.00
3842;DHT22;1936;47.074;15.336;2023-03-14T01:14:40;7.20;73.20
3842;DHT22;1936;47.074;15.336;2023-03-14T01:16:44;7.40;72.70
3842;DHT22;1936;47.074;15.336;2023-03-14T01:18:48;7.40;72.30
3842;DHT22;1936;47.074;15.336;2023-03-14T01:20:51;7.60;73.10
3842;DHT22;1936;47.074;15.336;2023-03-14T01:22:55;7.70;72.20
3842;DHT22;1936;47.074;15.336;2023-03-14T01:24:59;7.90;73.10
3842;DHT22;1936;47.074;15.336;2023-03-14T01:27:02;8.50;71.80
3842;DHT22;1936;47.074;15.336;2023-03-14T01:29:07;9.10;69.80
3842;DHT22;1936;47.074;15.336;2023-03-14T01:31:11;9.70;67.30
3842;DHT22;1936;47.074;15.336;2023-03-14T01:33:14;9.90;66.30
3842;DHT22;1936;47.074;15.336;2023-03-14T01:35:18;10.20;65.10
3842;DHT22;1936;47.074;15.336;2023-03-14T01:37:21;10.60;64.20
3842;DHT22;1936;47.074;15.336;2023-03-14T01:39:25;10.80;63.30
3842;DHT22;1936;47.074;15.336;2023-03-14T01:41:30;10.80;62.20
3842;DHT22;1936;47.074;15.336;2023-03-14T01:43:34;10.80;62.20
3842;DHT22;1936;47.074;15.336;2023-03-14T01:48:31;10.80;62.10
3842;DHT22;1936;47.074;15.336;2023-03-14T01:50:35;10.50;62.90
3842;DHT22;1936;47.074;15.336;2023-03-14T01:52:41;10.30;63.50
3842;DHT22;1936;47.074;15.336;2023-03-14T01:54:48;10.10;63.70
3842;DHT22;1936;47.074;15.336;2023-03-14T01:56:56;10.00;63.60
3842;DHT22;1936;47.074;15.336;2023-03-14T01:59:04;9.80;63.70
3842;DHT22;1936;47.074;15.336;2023-03-14T02:01:09;9.70;63.90
3842;DHT22;1936;47.074;15.336;2023-03-14T02:03:16;9.40;65.10
3842;DHT22;1936;47.074;15.336;2023-03-14T02:05:24;9.30;65.80
3842;DHT22;1936;47.074;15.336;2023-03-14T02:07:35;9.20;66.60
3842;DHT22;1936;47.074;15.336;2023-03-14T02:09:40;9.20;66.70
3842;DHT22;1936;47.074;15.336;2023-03-14T02:11:45;9.10;66.40
3842;DHT22;1936;47.074;15.336;2023-03-14T02:13:49;9.00;66.90
3842;DHT22;1936;47.074;15.336;2023-03-14T02:15:53;9.00;67.00
3842;DHT22;1936;47.074;15.336;2023-03-14T02:17:58;8.80;66.90
3842;DHT22;1936;47.074;15.336;2023-03-14T02:20:13;8.70;67.20
3842;DHT22;1936;47.074;15.336;2023-03-14T02:22:23;8.70;67.70
3842;DHT22;1936;47.074;15.336;2023-03-14T02:24:33;8.70;67.90
3842;DHT22;1936;47.074;15.336;2023-03-14T02:26:40;8.60;67.80
3842;DHT22;1936;47.074;15.336;2023-03-14T02:28:48;8.50;67.80
3842;DHT22;1936;47.074;15.336;2023-03-14T02:30:52;8.40;68.20
3842;DHT22;1936;47.074;15.336;2023-03-14T02:32:58;8.20;70.00
3842;DHT22;1936;47.074;15.336;2023-03-14T02:35:08;8.10;70.70
3842;DHT22;1936;47.074;15.336;2023-03-14T02:37:13;8.10;70.00
3842;DHT22;1936;47.074;15.336;2023-03-14T02:39:24;8.10;70.70
3842;DHT22;1936;47.074;15.336;2023-03-14T02:41:30;8.00;70.70
3842;DHT22;1936;47.074;15.336;2023-03-14T02:43:34;7.90;71.60
3842;DHT22;1936;47.074;15.336;2023-03-14T02:45:42;7.90;72.50
3842;DHT22;1936;47.074;15.336;2023-03-14T02:47:49;8.00;72.90
3842;DHT22;1936;47.074;15.336;2023-03-14T02:50:00;8.00;72.70
3842;DHT22;1936;47.074;15.336;2023-03-14T02:52:05;7.80;72.10
3842;DHT22;1936;47.074;15.336;2023-03-14T02:54:09;7.60;74.00
3842;DHT22;1936;47.074;15.336;2023-03-14T02:56:12;7.60;75.00
3842;DHT22;1936;47.074;15.336;2023-03-14T02:58:17;7.80;74.80
3842;DHT22;1936;47.074;15.336;2023-03-14T03:00:21;7.90;73.80
3842;DHT22;1936;47.074;15.336;2023-03-14T03:02:26;8.00;74.20
3842;DHT22;1936;47.074;15.336;2023-03-14T03:04:29;8.10;73.40
3842;DHT22;1936;47.074;15.336;2023-03-14T03:06:33;8.20;72.90
3842;DHT22;1936;47.074;15.336;2023-03-14T03:08:36;8.20;72.30
3842;DHT22;1936;47.074;15.336;2023-03-14T03:10:40;8.20;72.10
3842;DHT22;1936;47.074;15.336;2023-03-14T03:12:44;8.10;72.60
3842;DHT22;1936;47.074;15.336;2023-03-14T03:14:48;8.00;72.80
3842;DHT22;1936;47.074;15.336;2023-03-14T03:16:51;8.00;72.90
3842;DHT22;1936;47.074;15.336;2023-03-14T03:18:57;8.00;73.00
3842;DHT22;1936;47.074;15.336;2023-03-14T03:21:01;7.90;73.00
3842;DHT22;1936;47.074;15.336;2023-03-14T03:23:05;7.90;73.20
3842;DHT22;1936;47.074;15.336;2023-03-14T03:25:10;7.80;74.00
3842;DHT22;1936;47.074;15.336;2023-03-14T03:27:13;7.90;73.90
3842;DHT22;1936;47.074;15.336;2023-03-14T03:29:17;7.90;73.40
3842;DHT22;1936;47.074;15.336;2023-03-14T03:31:21;7.80;73.80
3842;DHT22;1936;47.074;15.336;2023-03-14T03:33:24;7.90;73.40
3842;DHT22;1936;47.074;15.336;2023-03-14T03:35:29;7.60;74.70
3842;DHT22;1936;47.074;15.336;2023-03-14T03:37:33;7.70;74.40
3842;DHT22;1936;47.074;15.336;2023-03-14T03:39:37;7.80;73.80
3842;DHT22;1936;47.074;15.336;2023-03-14T03:41:41;7.80;73.60
3842;DHT22;1936;47.074;15.336;2023-03-14T03:43:45;7.80;73.00
3842;DHT22;1936;47.074;15.336;2023-03-14T03:45:48;7.70;73.00
3842;DHT22;1936;47.074;15.336;2023-03-14T03:47:52;7.60;73.10
3842;DHT22;1936;47.074;15.336;2023-03-14T03:49:55;7.60;73.20
3842;DHT22;1936;47.074;15.336;2023-03-14T03:52:01;7.70;72.90
3842;DHT22;1936;47.074;15.336;2023-03-14T03:54:04;7.60;72.90
3842;DHT22;1936;47.074;15.336;2023-03-14T03:56:09;7.60;72.70
3842;DHT22;1936;47.074;15.336;2023-03-14T03:58:13;7.50;72.00
3842;DHT22;1936;47.074;15.336;2023-03-14T04:00:17;7.30;72.00
3842;DHT22;1936;47.074;15.336;2023-03-14T04:02:20;7.20;72.80
3842;DHT22;1936;47.074;15.336;2023-03-14T04:04:24;7.20;73.20
3842;DHT22;1936;47.074;15.336;2023-03-14T04:06:28;7.10;73.30
3842;DHT22;1936;47.074;15.336;2023-03-14T04:08:33;7.00;74.30
3842;DHT22;1936;47.074;15.336;2023-03-14T04:10:37;6.90;74.90
3842;DHT22;1936;47.074;15.336;2023-03-14T04:12:40;7.00;74.70
3842;DHT22;1936;47.074;15.336;2023-03-14T04:14:47;6.90;74.40
3842;DHT22;1936;47.074;15.336;2023-03-14T04:16:50;7.00;75.00
3842;DHT22;1936;47.074;15.336;2023-03-14T04:18:54;7.00;75.30
3842;DHT22;1936;47.074;15.336;2023-03-14T04:20:58;7.10;76.40
3842;DHT22;1936;47.074;15.336;2023-03-14T04:23:01;7.10;75.60
3842;DHT22;1936;47.074;15.336;2023-03-14T04:25:07;7.20;75.70
3842;DHT22;1936;47.074;15.336;2023-03-14T04:27:11;7.20;75.40
3842;DHT22;1936;47.074;15.336;2023-03-14T04:29:16;7.20;75.60
3842;DHT22;1936;47.074;15.336;2023-03-14T04:31:21;7.20;76.70
3842;DHT22;1936;47.074;15.336;2023-03-14T04:33:25;7.30;80.00
3842;DHT22;1936;47.074;15.336;2023-03-14T04:35:30;7.50;78.80
3842;DHT22;1936;47.074;15.336;2023-03-14T04:37:34;7.70;77.70
3842;DHT22;1936;47.074;15.336;2023-03-14T04:39:38;7.80;78.00
3842;DHT22;1936;47.074;15.336;2023-03-14T04:41:44;7.90;77.40
3842;DHT22;1936;47.074;15.336;2023-03-14T04:43:48;8.00;77.10
3842;DHT22;1936;47.074;15.336;2023-03-14T04:45:52;8.00;76.70
3842;DHT22;1936;47.074;15.336;2023-03-14T04:47:56;8.30;76.60
3842;DHT22;1936;47.074;15.336;2023-03-14T04:49:59;8.40;76.30
3842;DHT22;1936;47.074;15.336;2023-03-14T04:52:05;8.40;76.10
3842;DHT22;1936;47.074;15.336;2023-03-14T04:54:09;8.50;75.70
3842;DHT22;1936;47.074;15.336;2023-03-14T04:56:12;8.70;75.70
3842;DHT22;1936;47.074;15.336;2023-03-14T04:58:17;8.70;75.70
3842;DHT22;1936;47.074;15.336;2023-03-14T05:00:21;8.80;75.90
3842;DHT22;1936;47.074;15.336;2023-03-14T05:02:25;8.80;76.10
3842;DHT22;1936;47.074;15.336;2023-03-14T05:04:29;8.90;76.00
3842;DHT22;1936;47.074;15.336;2023-03-14T05:06:34;9.00;75.60
3842;DHT22;1936;47.074;15.336;2023-03-14T05:08:38;8.90;75.40
3842;DHT22;1936;47.074;15.336;2023-03-14T05:10:41;9.00;76.30
3842;DHT22;1936;47.074;15.336;2023-03-14T05:12:45;9.00;76.10
3842;DHT22;1936;47.074;15.336;2023-03-14T05:14:50;9.20;75.30
3842;DHT22;1936;47.074;15.336;2023-03-14T05:16:53;9.30;75.20
3842;DHT22;1936;47.074;15.336;2023-03-14T05:18:57;9.40;76.30
3842;DHT22;1936;47.074;15.336;2023-03-14T05:21:01;9.70;76.30
3842;DHT22;1936;47.074;15.336;2023-03-14T05:23:04;9.80;74.90
3842;DHT22;1936;47.074;15.336;2023-03-14T05:25:09;9.90;73.90
3842;DHT22;1936;47.074;15.336;2023-03-14T05:27:13;9.80;73.40
3842;DHT22;1936;47.074;15.336;2023-03-14T05:29:17;9.80;73.60
3842;DHT22;1936;47.074;15.336;2023-03-14T05:31:22;9.80;74.00
3842;DHT22;1936;47.074;15.336;2023-03-14T05:33:25;9.80;74.70
3842;DHT22;1936;47.074;15.336;2023-03-14T05:35:29;9.90;74.70
3842;DHT22;1936;47.074;15.336;2023-03-14T05:37:33;10.10;75.00
3842;DHT22;1936;47.074;15.336;2023-03-14T05:39:37;10.20;74.40
3842;DHT22;1936;47.074;15.336;2023-03-14T05:41:40;10.00;73.40
3842;DHT22;1936;47.074;15.336;2023-03-14T05:43:44;10.10;73.20
3842;DHT22;1936;47.074;15.336;2023-03-14T05:45:47;10.10;74.50
3842;DHT22;1936;47.074;15.336;2023-03-14T05:47:52;10.10;74.90
3842;DHT22;1936;47.074;15.336;2023-03-14T05:49:56;10.30;74.10
3842;DHT22;1936;47.074;15.336;2023-03-14T05:52:00;10.40;73.20
3842;DHT22;1936;47.074;15.336;2023-03-14T05:54:03;10.50;72.80
3842;DHT22;1936;47.074;15.336;2023-03-14T05:56:08;10.50;72.60
3842;DHT22;1936;47.074;15.336;2023-03-14T05:58:11;10.50;72.70
3842;DHT22;1936;47.074;15.336;2023-03-14T06:00:16;10.60;73.10
3842;DHT22;1936;47.074;15.336;2023-03-14T06:02:19;10.50;73.90
3842;DHT22;1936;47.074;15.336;2023-03-14T06:04:25;10.60;73.60
3842;DHT22;1936;47.074;15.336;2023-03-14T06:06:29;10.60;73.10
3842;DHT22;1936;47.074;15.336;2023-03-14T06:08:33;10.60;73.00
3842;DHT22;1936;47.074;15.336;2023-03-14T06:10:37;10.60;73.10
3842;DHT22;1936;47.074;15.336;2023-03-14T06:12:40;10.40;73.40
3842;DHT22;1936;47.074;15.336;2023-03-14T06:14:44;10.50;73.40
3842;DHT22;1936;47.074;15.336;2023-03-14T06:16:47;10.70;72.60
3842;DHT22;1936;47.074;15.336;2023-03-14T06:18:51;10.80;72.40
3842;DHT22;1936;47.074;15.336;2023-03-14T06:20:56;10.90;72.50
3842;DHT22;1936;47.074;15.336;2023-03-14T06:23:00;10.90;72.80
3842;DHT22;1936;47.074;15.336;2023-03-14T06:25:04;10.90;72.30
3842;DHT22;1936;47.074;15.336;2023-03-14T06:27:08;10.90;72.30
3842;DHT22;1936;47.074;15.336;2023-03-14T06:29:11;11.10;72.10
3842;DHT22;1936;47.074;15.336;2023-03-14T06:31:15;11.10;71.80
3842;DHT22;1936;47.074;15.336;2023-03-14T06:33:19;11.20;72.00
3842;DHT22;1936;47.074;15.336;2023-03-14T06:35:22;11.20;72.90
3842;DHT22;1936;47.074;15.336;2023-03-14T06:37:28;11.40;71.30
3842;DHT22;1936;47.074;15.336;2023-03-14T06:39:31;11.40;70.90
3842;DHT22;1936;47.074;15.336;2023-03-14T06:41:35;11.50;70.70
3842;DHT22;1936;47.074;15.336;2023-03-14T06:43:39;11.50;71.90
3842;DHT22;1936;47.074;15.336;2023-03-14T06:45:42;11.60;71.10
3842;DHT22;1936;47.074;15.336;2023-03-14T06:47:46;11.70;70.60
3842;DHT22;1936;47.074;15.336;2023-03-14T06:49:50;11.80;70.30
3842;DHT22;1936;47.074;15.336;2023-03-14T06:51:54;11.70;69.70
3842;DHT22;1936;47.074;15.336;2023-03-14T06:53:59;11.80;70.60
3842;DHT22;1936;47.074;15.336;2023-03-14T06:56:03;11.50;71.60
3842;DHT22;1936;47.074;15.336;2023-03-14T06:58:07;11.70;71.30
3842;DHT22;1936;47.074;15.336;2023-03-14T07:00:12;11.70;70.10
3842;DHT22;1936;47.074;15.336;2023-03-14T07:02:16;11.80;69.50
3842;DHT22;1936;47.074;15.336;2023-03-14T07:04:20;11.70;70.90
3842;DHT22;1936;47.074;15.336;2023-03-14T07:06:23;12.00;71.10
3842;DHT22;1936;47.074;15.336;2023-03-14T07:08:31;12.20;68.40
3842;DHT22;1936;47.074;15.336;2023-03-14T07:10:36;12.40;67.60
3842;DHT22;1936;47.074;15.336;2023-03-14T07:12:40;12.40;67.60
3842;DHT22;1936;47.074;15.336;2023-03-14T07:14:43;12.70;67.00
3842;DHT22;1936;47.074;15.336;2023-03-14T07:16:51;12.80;66.70
3842;DHT22;1936;47.074;15.336;2023-03-14T07:18:55;12.80;67.60
3842;DHT22;1936;47.074;15.336;2023-03-14T07:20:58;13.00;67.50
3842;DHT22;1936;47.074;15.336;2023-03-14T07:23:02;13.50;65.40
3842;DHT22;1936;47.074;15.336;2023-03-14T07:25:06;13.60;65.00
3842;DHT22;1936;47.074;15.336;2023-03-14T07:27:13;13.80;64.20
3842;DHT22;1936;47.074;15.336;2023-03-14T07:29:17;14.00;63.80
3842;DHT22;1936;47.074;15.336;2023-03-14T07:31:21;13.90;63.10
3842;DHT22;1936;47.074;15.336;2023-03-14T07:33:25;14.00;63.30
3842;DHT22;1936;47.074;15.336;2023-03-14T07:35:28;13.90;63.90
3842;DHT22;1936;47.074;15.336;2023-03-14T07:37:32;14.10;64.80
3842;DHT22;1936;47.074;15.336;2023-03-14T07:39:36;14.80;66.50
3842;DHT22;1936;47.074;15.336;2023-03-14T07:41:39;16.10;62.80
3842;DHT22;1936;47.074;15.336;2023-03-14T07:43:44;17.30;55.50
3842;DHT22;1936;47.074;15.336;2023-03-14T07:45:48;19.20;54.00
3842;DHT22;1936;47.074;15.336;2023-03-14T07:47:57;20.60;50.10
3842;DHT22;1936;47.074;15.336;2023-03-14T07:50:00;22.40;46.90
3842;DHT22;1936;47.074;15.336;2023-03-14T07:52:04;22.70;42.30
3842;DHT22;1936;47.074;15.336;2023-03-14T07:54:07;22.30;40.40
3842;DHT22;1936;47.074;15.336;2023-03-14T07:56:11;22.00;43.00
3842;DHT22;1936;47.074;15.336;2023-03-14T07:58:15;22.70;43.10
3842;DHT22;1936;47.074;15.336;2023-03-14T08:00:20;23.50;39.40
3842;DHT22;1936;47.074;15.336;2023-03-14T08:02:24;23.10;40.20
3842;DHT22;1936;47.074;15.336;2023-03-14T08:04:28;24.20;40.40
3842;DHT22;1936;47.074;15.336;2023-03-14T08:06:31;24.30;38.50
3842;DHT22;1936;47.074;15.336;2023-03-14T08:08:35;24.00;38.20
3842;DHT22;1936;47.074;15.336;2023-03-14T08:10:38;23.30;39.60
3842;DHT22;1936;47.074;15.336;2023-03-14T08:12:42;23.00;40.90
3842;DHT22;1936;47.074;15.336;2023-03-14T08:14:45;23.70;40.00
3842;DHT22;1936;47.074;15.336;2023-03-14T08:16:51;24.60;36.60
3842;DHT22;1936;47.074;15.336;2023-03-14T08:18:55;25.30;36.00
3842;DHT22;1936;47.074;15.336;2023-03-14T08:20:59;25.30;35.60
3842;DHT22;1936;47.074;15.336;2023-03-14T08:23:02;24.10;36.50
3842;DHT22;1936;47.074;15.336;2023-03-14T08:25:07;23.50;38.90
3842;DHT22;1936;47.074;15.336;2023-03-14T08:27:10;22.90;39.10
3842;DHT22;1936;47.074;15.336;2023-03-14T08:29:16;22.70;39.80
3842;DHT22;1936;47.074;15.336;2023-03-14T08:31:19;22.80;40.60
3842;DHT22;1936;47.074;15.336;2023-03-14T08:33:25;21.90;40.40
3842;DHT22;1936;47.074;15.336;2023-03-14T08:35:29;21.70;42.30
3842;DHT22;1936;47.074;15.336;2023-03-14T08:37:32;21.90;42.40
3842;DHT22;1936;47.074;15.336;2023-03-14T08:39:36;22.40;41.40
3842;DHT22;1936;47.074;15.336;2023-03-14T08:41:39;22.20;40.40
3842;DHT22;1936;47.074;15.336;2023-03-14T08:43:45;22.40;41.80
3842;DHT22;1936;47.074;15.336;2023-03-14T08:45:48;23.30;40.00
3842;DHT22;1936;47.074;15.336;2023-03-14T08:47:52;22.90;38.60
3842;DHT22;1936;47.074;15.336;2023-03-14T08:49:57;22.80;39.70
3842;DHT22;1936;47.074;15.336;2023-03-14T08:52:01;22.00;41.60
3842;DHT22;1936;47.074;15.336;2023-03-14T08:54:05;21.40;42.00
3842;DHT22;1936;47.074;15.336;2023-03-14T08:56:09;20.90;43.30
3842;DHT22;1936;47.074;15.336;2023-03-14T08:58:12;20.70;43.80
3842;DHT22;1936;47.074;15.336;2023-03-14T09:00:17;20.50;44.50
3842;DHT22;1936;47.074;15.336;2023-03-14T09:02:21;20.10;45.30
3842;DHT22;1936;47.074;15.336;2023-03-14T09:04:25;19.50;46.50
3842;DHT22;1936;47.074;15.336;2023-03-14T09:06:30;19.50;47.20
3842;DHT22;1936;47.074;15.336;2023-03-14T09:08:34;19.40;47.30
3842;DHT22;1936;47.074;15.336;2023-03-14T09:10:40;19.50;48.10
3842;DHT22;1936;47.074;15.336;2023-03-14T09:12:43;18.90;47.70
3842;DHT22;1936;47.074;15.336;2023-03-14T09:14:47;19.00;48.10
3842;DHT22;1936;47.074;15.336;2023-03-14T09:16:50;18.90;47.90
3842;DHT22;1936;47.074;15.336;2023-03-14T09:18:54;18.90;48.20
3842;DHT22;1936;47.074;15.336;2023-03-14T09:21:01;18.50;50.20
3842;DHT22;1936;47.074;15.336;2023-03-14T09:23:06;18.30;50.10
3842;DHT22;1936;47.074;15.336;2023-03-14T09:25:10;18.20;50.60
3842;DHT22;1936;47.074;15.336;2023-03-14T09:27:13;17.90;50.70
3842;DHT22;1936;47.074;15.336;2023-03-14T09:29:17;18.00;51.30
3842;DHT22;1936;47.074;15.336;2023-03-14T09:31:21;17.80;51.90
3842;DHT22;1936;47.074;15.336;2023-03-14T09:33:25;17.80;51.30
3842;DHT22;1936;47.074;15.336;2023-03-14T09:35:29;17.30;52.90
3842;DHT22;1936;47.074;15.336;2023-03-14T09:37:32;17.30;52.30
3842;DHT22;1936;47.074;15.336;2023-03-14T09:39:37;17.50;51.80
3842;DHT22;1936;47.074;15.336;2023-03-14T09:41:43;17.40;52.20
3842;DHT22;1936;47.074;15.336;2023-03-14T09:43:48;17.50;52.60
3842;DHT22;1936;47.074;15.336;2023-03-14T09:45:53;17.80;53.10
3842;DHT22;1936;47.074;15.336;2023-03-14T09:47:58;17.90;51.30
3842;DHT22;1936;47.074;15.336;2023-03-14T09:50:02;17.80;52.10
3842;DHT22;1936;47.074;15.336;2023-03-14T09:52:13;17.60;52.20
3842;DHT22;1936;47.074;15.336;2023-03-14T09:54:29;17.40;53.50
3842;DHT22;1936;47.074;15.336;2023-03-14T09:56:35;17.30;53.70
3842;DHT22;1936;47.074;15.336;2023-03-14T09:58:41;17.40;53.40
3842;DHT22;1936;47.074;15.336;2023-03-14T10:00:45;17.40;53.80
3842;DHT22;1936;47.074;15.336;2023-03-14T10:02:52;17.20;54.50
3842;DHT22;1936;47.074;15.336;2023-03-14T10:04:56;17.20;55.00
3842;DHT22;1936;47.074;15.336;2023-03-14T10:07:00;17.50;55.00
3842;DHT22;1936;47.074;15.336;2023-03-14T10:09:06;17.50;54.80
3842;DHT22;1936;47.074;15.336;2023-03-14T10:11:14;17.70;54.30
3842;DHT22;1936;47.074;15.336;2023-03-14T10:13:21;17.80;55.20
3842;DHT22;1936;47.074;15.336;2023-03-14T10:15:29;18.10;55.50
3842;DHT22;1936;47.074;15.336;2023-03-14T10:17:39;18.30;55.30
3842;DHT22;1936;47.074;15.336;2023-03-14T10:19:54;19.50;52.90
3842;DHT22;1936;47.074;15.336;2023-03-14T10:22:01;21.90;48.30
3842;DHT22;1936;47.074;15.336;2023-03-14T10:24:10;24.50;43.80
3842;DHT22;1936;47.074;15.336;2023-03-14T10:26:24;26.80;37.70
3842;DHT22;1936;47.074;15.336;2023-03-14T10:28:32;27.60;32.20
3842;DHT22;1936;47.074;15.336;2023-03-14T10:30:43;26.40;30.90
3842;DHT22;1936;47.074;15.336;2023-03-14T10:32:47;24.90;34.50
3842;DHT22;1936;47.074;15.336;2023-03-14T10:35:11;23.20;36.00
3842;DHT22;1936;47.074;15.336;2023-03-14T10:37:22;22.20;34.80
3842;DHT22;1936;47.074;15.336;2023-03-14T10:39:37;21.50;36.50
3842;DHT22;1936;47.074;15.336;2023-03-14T10:41:47;21.40;38.50
3842;DHT22;1936;47.074;15.336;2023-03-14T10:43:55;21.20;36.30
3842;DHT22;1936;47.074;15.336;2023-03-14T10:46:05;21.80;36.60
3842;DHT22;1936;47.074;15.336;2023-03-14T10:48:20;21.50;36.60
3842;DHT22;1936;47.074;15.336;2023-03-14T10:50:26;20.70;36.10
3842;DHT22;1936;47.074;15.336;2023-03-14T10:52:30;20.50;37.30
3842;DHT22;1936;47.074;15.336;2023-03-14T10:54:57;19.80;39.30
3842;DHT22;1936;47.074;15.336;2023-03-14T10:57:04;19.80;40.30
3842;DHT22;1936;47.074;15.336;2023-03-14T10:59:14;19.30;39.50
3842;DHT22;1936;47.074;15.336;2023-03-14T11:01:36;19.20;39.60
3842;DHT22;1936;47.074;15.336;2023-03-14T11:03:51;18.20;41.00
3842;DHT22;1936;47.074;15.336;2023-03-14T11:05:57;18.20;42.70
3842;DHT22;1936;47.074;15.336;2023-03-14T11:08:08;18.50;41.90
3842;DHT22;1936;47.074;15.336;2023-03-14T11:10:19;18.50;41.10
3842;DHT22;1936;47.074;15.336;2023-03-14T11:12:38;19.30;40.90
3842;DHT22;1936;47.074;15.336;2023-03-14T11:14:49;20.40;37.20
3842;DHT22;1936;47.074;15.336;2023-03-14T11:17:00;20.20;35.40
3842;DHT22;1936;47.074;15.336;2023-03-14T11:21:51;19.90;37.90
3842;DHT22;1936;47.074;15.336;2023-03-14T11:24:12;19.70;38.00
3842;DHT22;1936;47.074;15.336;2023-03-14T11:26:29;18.90;37.70
3842;DHT22;1936;47.074;15.336;2023-03-14T11:28:36;18.70;39.60
3842;DHT22;1936;47.074;15.336;2023-03-14T11:30:48;18.70;39.10
3842;DHT22;1936;47.074;15.336;2023-03-14T11:32:59;19.00;40.40
3842;DHT22;1936;47.074;15.336;2023-03-14T11:35:16;19.10;39.30
3842;DHT22;1936;47.074;15.336;2023-03-14T11:37:27;19.50;38.10
3842;DHT22;1936;47.074;15.336;2023-03-14T11:39:39;18.80;38.10
3842;DHT22;1936;47.074;15.336;2023-03-14T11:41:45;19.00;40.00
3842;DHT22;1936;47.074;15.336;2023-03-14T11:43:54;19.60;41.80
3842;DHT22;1936;47.074;15.336;2023-03-14T11:46:07;19.90;37.60
3842;DHT22;1936;47.074;15.336;2023-03-14T11:48:29;19.60;37.10
3842;DHT22;1936;47.074;15.336;2023-03-14T11:50:38;18.70;38.40
3842;DHT22;1936;47.074;15.336;2023-03-14T11:52:48;18.60;39.20
3842;DHT22;1936;47.074;15.336;2023-03-14T11:55:00;18.70;40.20
3842;DHT22;1936;47.074;15.336;2023-03-14T11:57:10;18.80;38.40
3842;DHT22;1936;47.074;15.336;2023-03-14T11:59:21;18.90;38.30
3842;DHT22;1936;47.074;15.336;2023-03-14T12:01:40;18.90;37.50
3842;DHT22;1936;47.074;15.336;2023-03-14T12:03:49;19.70;39.70
3842;DHT22;1936;47.074;15.336;2023-03-14T12:06:05;20.60;37.20
3842;DHT22;1936;47.074;15.336;2023-03-14T12:08:48;22.10;32.60
3842;DHT22;1936;47.074;15.336;2023-03-14T12:10:54;23.20;30.30
3842;DHT22;1936;47.074;15.336;2023-03-14T12:12:59;23.20;29.90
3842;DHT22;1936;47.074;15.336;2023-03-14T12:15:04;22.70;30.90
3842;DHT22;1936;47.074;15.336;2023-03-14T12:17:19;21.70;32.00
3842;DHT22;1936;47.074;15.336;2023-03-14T12:19:32;21.00;32.20
3842;DHT22;1936;47.074;15.336;2023-03-14T12:21:46;20.30;34.60
3842;DHT22;1936;47.074;15.336;2023-03-14T12:23:53;18.60;37.00
3842;DHT22;1936;47.074;15.336;2023-03-14T12:26:12;17.80;38.50
3842;DHT22;1936;47.074;15.336;2023-03-14T12:28:18;17.00;40.70
3842;DHT22;1936;47.074;15.336;2023-03-14T12:30:27;16.90;40.70
3842;DHT22;1936;47.074;15.336;2023-03-14T12:32:32;16.70;41.90
3842;DHT22;1936;47.074;15.336;2023-03-14T12:34:39;16.60;41.60
3842;DHT22;1936;47.074;15.336;2023-03-14T12:37:09;17.00;42.20
3842;DHT22;1936;47.074;15.336;2023-03-14T12:39:20;16.90;41.30
3842;DHT22;1936;47.074;15.336;2023-03-14T12:41:29;16.80;42.00
3842;DHT22;1936;47.074;15.336;2023-03-14T12:43:38;16.40;42.40
3842;DHT22;1936;47.074;15.336;2023-03-14T12:45:41;16.40;42.10
3842;DHT22;1936;47.074;15.336;2023-03-14T12:48:10;16.80;42.80
3842;DHT22;1936;47.074;15.336;2023-03-14T12:50:25;16.70;41.80
3842;DHT22;1936;47.074;15.336;2023-03-14T12:52:35;17.20;42.60
3842;DHT22;1936;47.074;15.336;2023-03-14T12:54:44;17.50;41.70
3842;DHT22;1936;47.074;15.336;2023-03-14T12:57:00;17.70;41.30
3842;DHT22;1936;47.074;15.336;2023-03-14T12:59:31;17.90;41.20
3842;DHT22;1936;47.074;15.336;2023-03-14T13:01:36;17.90;40.20
3842;DHT22;1936;47.074;15.336;2023-03-14T13:03:43;18.10;39.90
3842;DHT22;1936;47.074;15.336;2023-03-14T13:05:53;17.90;39.70
3842;DHT22;1936;47.074;15.336;2023-03-14T13:08:08;17.40;40.50
3842;DHT22;1936;47.074;15.336;2023-03-14T13:10:21;17.70;40.70
3842;DHT22;1936;47.074;15.336;2023-03-14T13:12:32;18.00;41.20
3842;DHT22;1936;47.074;15.336;2023-03-14T13:14:43;17.90;40.00
3842;DHT22;1936;47.074;15.336;2023-03-14T13:16:47;17.80;40.30
3842;DHT22;1936;47.074;15.336;2023-03-14T13:18:59;17.70;39.90
3842;DHT22;1936;47.074;15.336;2023-03-14T13:21:07;17.40;40.20
3842;DHT22;1936;47.074;15.336;2023-03-14T13:23:20;17.00;41.10
3842;DHT22;1936;47.074;15.336;2023-03-14T13:25:32;17.00;41.90
3842;DHT22;1936;47.074;15.336;2023-03-14T13:27:36;16.80;43.50
3842;DHT22;1936;47.074;15.336;2023-03-14T13:29:41;16.80;42.30
3842;DHT22;1936;47.074;15.336;2023-03-14T13:31:46;17.00;42.50
3842;DHT22;1936;47.074;15.336;2023-03-14T13:33:57;16.90;42.70
3842;DHT22;1936;47.074;15.336;2023-03-14T13:36:03;16.70;43.10
3842;DHT22;1936;47.074;15.336;2023-03-14T13:38:16;16.60;42.90
3842;DHT22;1936;47.074;15.336;2023-03-14T13:40:31;16.60;42.70